Time;durP1;ratioP1;P1;durP2;ratioP2;P2;SDS_P1;SDS_P2;PMS_P1;PMS_P2;Temp;Humidity;BMP_temperature;BMP_pressure;BME280_temperature;BME280_humidity;BME280_pressure;Samples;Min_cycle;Max_cycle;Signal;HPM_P1;HPM_P2
2022/05/19 00:00:10;;;;;;;;;4.50;4.00;;;27.09;98743.75;;;;117069;1193;25666;-55
2022/05/19 00:03:00;;;;;;;;;8.33;7.33;;;27.11;98743.73;;;;117043;1193;25481;-55
2022/05/19 00:05:28;;;;;;;;;7.00;6.25;;;27.06;98741.19;;;;117044;1193;25559;-56
2022/05/19 00:07:56;;;;;;;;;5.75;5.25;;;27.01;98741.39;;;;117033;1193;25033;-55
2022/05/19 00:10:25;;;;;;;;;4.00;4.00;;;26.97;98742.20;;;;117099;1193;24991;-56
2022/05/19 00:12:53;;;;;;;;;6.75;6.75;;;26.94;98745.73;;;;117052;1191;25227;-55
2022/05/19 00:15:21;;;;;;;;;6.75;4.00;;;26.91;98746.54;;;;117078;1193;25236;-54
2022/05/19 00:17:50;;;;;;;;;7.67;5.67;;;26.89;98747.58;;;;117044;1193;25050;-55
2022/05/19 00:20:22;;;;;;;;;4.00;4.00;;;26.91;98747.02;;;;117144;1192;24799;-55
2022/05/19 00:22:50;;;;;;;;;4.50;4.50;;;26.94;98742.70;;;;117064;1193;26110;-56
2022/05/19 00:25:21;;;;;;;;;6.00;4.67;;;26.93;98744.77;;;;117110;1192;25228;-55
2022/05/19 00:27:50;;;;;;;;;9.50;4.75;;;26.94;98746.48;;;;117058;1192;24906;-53
2022/05/19 00:30:19;;;;;;;;;4.00;4.00;;;26.92;98751.92;;;;117051;1193;25559;-55
2022/05/19 00:32:48;;;;;;;;;6.00;4.00;;;26.92;98755.91;;;;117025;1193;25861;-55
2022/05/19 00:35:21;;;;;;;;;3.50;3.50;;;26.90;98758.69;;;;117369;1193;25171;-55
2022/05/19 00:37:49;;;;;;;;;3.33;3.33;;;26.98;98763.52;;;;117089;1193;24898;-56
2022/05/19 00:40:25;;;;;;;;;2.00;1.25;;;26.95;98763.85;;;;117000;1194;25588;-55
2022/05/19 00:42:52;;;;;;;;;6.00;5.00;;;26.93;98761.77;;;;117009;1193;26492;-55
2022/05/19 00:45:25;;;;;;;;;3.25;2.50;;;26.92;98762.91;;;;117100;1193;25437;-54
2022/05/19 00:47:56;;;;;;;;;5.33;3.33;;;26.92;98762.08;;;;117054;1193;25022;-54
2022/05/19 00:50:50;;;;;;;;;6.50;4.00;;;26.91;98761.47;;;;117113;1193;24740;-54
2022/05/19 00:53:49;;;;;;;;;5.33;4.00;;;26.91;98761.17;;;;117083;1193;24820;-54
2022/05/19 00:56:48;;;;;;;;;4.50;4.50;;;26.92;98759.36;;;;117150;1191;25703;-54
2022/05/19 00:59:31;;;;;;;;;4.67;3.33;;;27.01;98761.92;;;;116957;1194;25329;-54
2022/05/19 01:02:02;;;;;;;;;5.75;2.75;;;27.02;98762.39;;;;117057;1193;24904;-53
2022/05/19 01:04:35;;;;;;;;;6.50;3.00;;;27.01;98764.41;;;;116973;1194;24889;-54
2022/05/19 01:07:17;;;;;;;;;3.00;3.00;;;26.99;98762.01;;;;117067;1193;25025;-54
2022/05/19 01:09:50;;;;;;;;;5.00;4.00;;;26.99;98763.35;;;;117077;1192;24836;-55
2022/05/19 01:12:19;;;;;;;;;1.75;1.75;;;26.97;98767.63;;;;116999;1194;25311;-55
2022/05/19 01:14:52;;;;;;;;;6.75;3.00;;;26.96;98761.45;;;;117033;1194;25171;-55
2022/05/19 01:17:28;;;;;;;;;5.75;3.25;;;26.99;98759.58;;;;117063;1193;25527;-56
2022/05/19 01:20:03;;;;;;;;;5.33;3.67;;;26.98;98756.77;;;;116977;1193;25472;-55
2022/05/19 01:22:48;;;;;;;;;5.00;4.00;;;26.98;98754.27;;;;117000;1193;25101;-55
2022/05/19 01:25:34;;;;;;;;;1.50;1.50;;;26.98;98750.38;;;;117020;1193;25034;-55
2022/05/19 01:28:04;;;;;;;;;7.50;3.00;;;27.01;98757.99;;;;117114;1193;25582;-55
2022/05/19 01:30:33;;;;;;;;;4.00;3.50;;;27.00;98762.35;;;;117002;1193;25774;-54
2022/05/19 01:33:03;;;;;;;;;2.00;2.00;;;26.98;98761.32;;;;116979;1192;24987;-54
2022/05/19 01:35:36;;;;;;;;;4.00;4.00;;;26.94;98766.25;;;;116978;1195;25104;-54
2022/05/19 01:38:22;;;;;;;;;5.25;2.50;;;26.91;98770.36;;;;117017;1194;24998;-54
2022/05/19 01:41:07;;;;;;;;;4.33;3.00;;;26.94;98774.11;;;;116994;1194;24950;-55
2022/05/19 01:43:56;;;;;;;;;3.00;2.00;;;26.94;98771.19;;;;116994;1194;25304;-53
2022/05/19 01:46:33;;;;;;;;;2.50;2.50;;;26.97;98770.96;;;;116996;1193;25499;-54
2022/05/19 01:49:22;;;;;;;;;2.25;2.25;;;26.99;98766.61;;;;116976;1193;24764;-54
2022/05/19 01:52:10;;;;;;;;;3.50;3.00;;;26.98;98766.73;;;;116959;1193;25152;-54
2022/05/19 01:54:48;;;;;;;;;4.00;3.00;;;26.95;98769.17;;;;117003;1194;25292;-54
2022/05/19 01:57:27;;;;;;;;;2.50;2.50;;;26.95;98766.38;;;;117100;1192;25927;-54
2022/05/19 02:00:04;;;;;;;;;3.50;3.50;;;27.00;98764.27;;;;117097;1193;25268;-54
2022/05/19 02:02:52;;;;;;;;;3.00;3.00;;;26.98;98763.38;;;;117078;1193;25676;-54
2022/05/19 02:05:54;;;;;;;;;2.50;2.50;;;26.99;98758.86;;;;117063;1192;24790;-55
2022/05/19 02:08:31;;;;;;;;;3.00;3.00;;;26.97;98759.02;;;;117121;1193;25100;-55
2022/05/19 02:11:09;;;;;;;;;2.00;1.00;;;26.93;98761.98;;;;117089;1193;25739;-54
2022/05/19 02:13:37;;;;;;;;;7.00;4.00;;;26.93;98767.97;;;;117097;1193;25431;-55
2022/05/19 02:16:09;;;;;;;;;3.00;2.00;;;26.92;98768.59;;;;117065;1193;25390;-55
2022/05/19 02:18:41;;;;;;;;;2.00;2.00;;;26.88;98766.70;;;;117058;1193;25503;-55
2022/05/19 02:21:12;;;;;;;;;1.75;1.75;;;26.89;98769.63;;;;117077;1193;25662;-55
2022/05/19 02:23:43;;;;;;;;;2.00;2.00;;;26.85;98770.52;;;;117083;1193;25316;-55
2022/05/19 02:26:13;;;;;;;;;3.00;2.33;;;26.86;98777.71;;;;117091;1193;24714;-53
2022/05/19 02:28:50;;;;;;;;;3.25;2.25;;;26.85;98780.64;;;;117107;1193;25265;-54
2022/05/19 02:31:18;;;;;;;;;1.33;1.33;;;26.85;98780.23;;;;117037;1193;25401;-54
2022/05/19 02:33:46;;;;;;;;;2.50;2.00;;;26.81;98782.32;;;;117069;1193;25647;-54
2022/05/19 02:36:15;;;;;;;;;3.50;2.50;;;26.79;98783.46;;;;117064;1193;25708;-54
2022/05/19 02:38:43;;;;;;;;;1.33;1.33;;;26.78;98795.83;;;;117059;1193;24929;-54
2022/05/19 02:41:13;;;;;;;;;2.25;2.00;;;26.80;98799.71;;;;117023;1193;25503;-55
2022/05/19 02:43:41;;;;;;;;;3.50;3.00;;;26.79;98797.77;;;;117064;1191;24977;-55
2022/05/19 02:46:12;;;;;;;;;3.33;2.67;;;26.75;98799.63;;;;117065;1193;24945;-55
2022/05/19 02:48:40;;;;;;;;;2.25;1.50;;;26.73;98804.41;;;;117099;1193;24890;-54
2022/05/19 02:51:12;;;;;;;;;3.67;3.67;;;26.75;98803.14;;;;117068;1193;24756;-54
2022/05/19 02:53:40;;;;;;;;;4.00;3.00;;;26.75;98800.18;;;;117070;1193;25238;-55
2022/05/19 02:56:11;;;;;;;;;1.00;1.00;;;26.73;98803.87;;;;117056;1193;25760;-54
2022/05/19 02:58:45;;;;;;;;;3.00;2.00;;;26.73;98801.25;;;;117091;1193;24967;-54
2022/05/19 03:01:13;;;;;;;;;1.75;1.75;;;26.75;98803.14;;;;117100;1192;25254;-54
2022/05/19 03:03:45;;;;;;;;;4.00;3.50;;;26.73;98806.06;;;;116977;1193;25487;-54
2022/05/19 03:06:20;;;;;;;;;2.50;2.00;;;26.74;98810.59;;;;117099;1193;25551;-54
2022/05/19 03:08:48;;;;;;;;;2.00;1.00;;;26.73;98814.95;;;;117075;1193;25476;-54
2022/05/19 03:11:19;;;;;;;;;2.75;2.50;;;26.71;98814.01;;;;117082;1194;24881;-54
2022/05/19 03:13:48;;;;;;;;;3.00;1.67;;;26.71;98811.44;;;;117046;1193;25390;-54
2022/05/19 03:16:18;;;;;;;;;3.00;2.00;;;26.69;98815.40;;;;117095;1193;25668;-54
2022/05/19 03:18:49;;;;;;;;;3.50;2.75;;;26.69;98817.65;;;;117090;1193;25483;-54
2022/05/19 03:21:22;;;;;;;;;2.00;2.00;;;26.69;98817.06;;;;117051;1193;24816;-55
2022/05/19 03:23:54;;;;;;;;;1.50;1.00;;;26.69;98813.90;;;;117094;1193;24762;-56
2022/05/19 03:26:24;;;;;;;;;2.75;2.75;;;26.69;98819.33;;;;117084;1192;25384;-55
2022/05/19 03:28:52;;;;;;;;;3.50;2.50;;;26.67;98819.91;;;;117056;1193;25258;-55
2022/05/19 03:31:22;;;;;;;;;2.25;1.00;;;26.67;98818.94;;;;117084;1192;24912;-56
2022/05/19 03:33:50;;;;;;;;;2.75;1.25;;;26.66;98819.98;;;;117070;1192;25422;-55
2022/05/19 03:36:20;;;;;;;;;3.00;1.75;;;26.65;98822.52;;;;117182;1193;25151;-55
2022/05/19 03:38:50;;;;;;;;;2.00;2.00;;;26.69;98823.33;;;;117197;1193;24692;-55
2022/05/19 03:41:29;;;;;;;;;1.00;1.00;;;26.72;98826.61;;;;117071;1193;25071;-55
2022/05/19 03:43:58;;;;;;;;;2.25;1.75;;;26.70;98827.56;;;;116999;1194;25432;-55
2022/05/19 03:46:28;;;;;;;;;2.50;2.00;;;26.69;98824.48;;;;116989;1194;25689;-55
2022/05/19 03:48:56;;;;;;;;;1.75;1.75;;;26.68;98820.55;;;;117066;1192;26207;-54
2022/05/19 03:51:28;;;;;;;;;1.00;1.00;;;26.68;98823.27;;;;117106;1191;25097;-55
2022/05/19 03:54:02;;;;;;;;;3.00;2.00;;;26.71;98824.88;;;;117099;1192;25080;-55
2022/05/19 03:56:36;;;;;;;;;3.00;2.25;;;26.71;98827.81;;;;117081;1193;25721;-55
2022/05/19 03:59:11;;;;;;;;;2.00;2.00;;;26.80;98827.98;;;;117050;1193;25286;-55
2022/05/19 04:01:41;;;;;;;;;4.75;1.25;;;26.81;98825.70;;;;117078;1193;25350;-56
2022/05/19 04:04:16;;;;;;;;;3.50;3.00;;;26.89;98826.75;;;;116821;1195;25300;-54
2022/05/19 04:06:46;;;;;;;;;2.00;2.00;;;26.88;98828.88;;;;117116;1194;24852;-55
2022/05/19 04:09:19;;;;;;;;;4.67;2.33;;;26.75;98829.65;;;;117131;1194;25233;-55
2022/05/19 04:11:50;;;;;;;;;2.50;2.50;;;26.70;98826.27;;;;117146;1193;25280;-55
2022/05/19 04:14:19;;;;;;;;;4.00;3.00;;;26.57;98832.08;;;;117148;1194;25188;-56
2022/05/19 04:16:52;;;;;;;;;1.00;1.00;;;26.59;98832.87;;;;117176;1193;25338;-55
2022/05/19 04:19:23;;;;;;;;;4.50;2.75;;;26.59;98836.76;;;;117062;1191;25195;-53
2022/05/19 04:21:51;;;;;;;;;5.50;2.00;;;26.56;98839.40;;;;117074;1193;25593;-54
2022/05/19 04:24:25;;;;;;;;;2.00;2.00;;;26.51;98843.09;;;;117140;1192;25749;-54
2022/05/19 04:26:54;;;;;;;;;4.67;3.33;;;26.61;98843.92;;;;117093;1193;25978;-55
2022/05/19 04:29:31;;;;;;;;;3.50;2.50;;;26.64;98851.10;;;;117178;1193;25012;-54
2022/05/19 04:32:03;;;;;;;;;2.00;2.00;;;26.72;98853.16;;;;117070;1193;25268;-54
2022/05/19 04:34:32;;;;;;;;;2.75;2.75;;;26.67;98858.47;;;;117359;1193;25196;-53
2022/05/19 04:37:04;;;;;;;;;2.67;1.67;;;26.74;98855.95;;;;117178;1193;25062;-54
2022/05/19 04:39:32;;;;;;;;;5.00;4.00;;;26.76;98852.89;;;;116987;1192;25453;-51
2022/05/19 04:42:12;;;;;;;;;4.50;3.00;;;26.62;98850.80;;;;117137;1193;25497;-52
2022/05/19 04:44:40;;;;;;;;;2.00;2.00;;;26.55;98845.86;;;;117236;1193;25549;-54
2022/05/19 04:47:13;;;;;;;;;2.50;2.50;;;26.15;98849.81;;;;117072;1193;25096;-53
2022/05/19 04:49:43;;;;;;;;;4.25;4.25;;;25.83;98852.40;;;;117135;1194;24838;-55
2022/05/19 04:52:15;;;;;;;;;4.00;3.00;;;25.66;98851.02;;;;117075;1192;25598;-56
2022/05/19 04:54:46;;;;;;;;;3.00;3.00;;;25.41;98851.08;;;;117196;1192;25043;-55
2022/05/19 04:57:18;;;;;;;;;2.75;1.50;;;25.28;98853.99;;;;117139;1194;25477;-55
2022/05/19 04:59:48;;;;;;;;;5.50;5.00;;;25.18;98848.13;;;;116980;1193;25665;-55
2022/05/19 05:02:18;;;;;;;;;3.00;2.75;;;24.91;98847.23;;;;117020;1194;26253;-52
2022/05/19 05:04:46;;;;;;;;;1.75;1.50;;;25.09;98841.71;;;;116987;1193;25176;-53
2022/05/19 05:07:14;;;;;;;;;4.75;3.00;;;25.16;98839.49;;;;117065;1193;25379;-53
2022/05/19 05:09:41;;;;;;;;;2.33;2.33;;;25.21;98838.27;;;;117116;1194;25232;-52
2022/05/19 05:12:10;;;;;;;;;4.00;1.67;;;25.22;98839.63;;;;117179;1193;24863;-50
2022/05/19 05:14:38;;;;;;;;;2.50;2.50;;;25.31;98844.00;;;;117050;1192;24977;-51
2022/05/19 05:17:05;;;;;;;;;9.00;3.75;;;25.31;98846.00;;;;117183;1191;25594;-54
2022/05/19 05:19:34;;;;;;;;;2.33;2.33;;;25.35;98846.91;;;;117122;1194;25638;-55
2022/05/19 05:22:01;;;;;;;;;3.33;3.33;;;25.43;98844.64;;;;117002;1192;24895;-54
2022/05/19 05:24:29;;;;;;;;;5.00;3.00;;;25.44;98842.29;;;;117093;1193;24735;-55
2022/05/19 05:26:57;;;;;;;;;2.50;2.50;;;25.50;98842.16;;;;117092;1194;26232;-53
2022/05/19 05:29:25;;;;;;;;;2.75;1.50;;;25.54;98841.73;;;;117205;1193;25633;-54
2022/05/19 05:31:53;;;;;;;;;3.00;3.00;;;25.62;98844.35;;;;117027;1193;25204;-54
2022/05/19 05:34:21;;;;;;;;;4.00;3.00;;;25.65;98839.70;;;;117111;1191;24806;-54
2022/05/19 05:36:49;;;;;;;;;3.25;3.25;;;25.71;98839.45;;;;117039;1193;25647;-54
2022/05/19 05:39:17;;;;;;;;;2.00;2.00;;;25.71;98845.55;;;;117286;1193;25374;-54
2022/05/19 05:41:45;;;;;;;;;3.67;2.67;;;25.78;98837.38;;;;117080;1193;24908;-55
2022/05/19 05:44:13;;;;;;;;;3.25;3.00;;;25.82;98834.52;;;;117070;1192;25080;-54
2022/05/19 05:46:42;;;;;;;;;0.00;0.00;;;25.82;98833.61;;;;117021;1193;24750;-55
2022/05/19 05:49:10;;;;;;;;;3.00;3.00;;;25.82;98836.13;;;;116961;1194;26383;-54
2022/05/19 05:51:38;;;;;;;;;2.50;2.50;;;25.83;98839.77;;;;117138;1193;25358;-55
2022/05/19 05:54:06;;;;;;;;;3.00;2.25;;;25.88;98839.86;;;;117457;1191;25253;-54
2022/05/19 05:56:34;;;;;;;;;2.67;2.67;;;26.01;98841.74;;;;117164;1191;24755;-54
2022/05/19 05:59:02;;;;;;;;;3.67;3.67;;;26.03;98845.63;;;;117049;1193;24873;-53
2022/05/19 06:01:30;;;;;;;;;2.00;1.67;;;25.99;98848.04;;;;117154;1193;25629;-55
2022/05/19 06:03:58;;;;;;;;;3.00;3.00;;;26.03;98848.80;;;;117160;1193;25643;-55
2022/05/19 06:06:28;;;;;;;;;3.00;2.33;;;26.05;98850.05;;;;116951;1193;24974;-54
2022/05/19 06:08:56;;;;;;;;;4.00;4.00;;;26.05;98852.58;;;;117161;1192;25644;-55
2022/05/19 06:11:32;;;;;;;;;2.33;1.67;;;26.11;98849.97;;;;116985;1193;25105;-53
2022/05/19 06:14:00;;;;;;;;;9.75;3.00;;;26.11;98857.27;;;;116956;1192;25092;-55
2022/05/19 06:16:30;;;;;;;;;3.00;2.33;;;26.15;98860.26;;;;117180;1192;25682;-57
2022/05/19 06:18:58;;;;;;;;;6.00;3.00;;;26.22;98859.23;;;;117051;1194;25962;-55
2022/05/19 06:21:26;;;;;;;;;3.67;1.67;;;26.25;98861.46;;;;117170;1193;24935;-55
2022/05/19 06:23:57;;;;;;;;;5.50;4.25;;;26.28;98861.59;;;;117186;1193;27815;-57
2022/05/19 06:26:27;;;;;;;;;4.50;3.25;;;26.34;98866.33;;;;117287;1193;24835;-56
2022/05/19 06:28:54;;;;;;;;;3.50;3.50;;;26.39;98865.59;;;;117038;1192;25520;-54
2022/05/19 06:31:25;;;;;;;;;2.25;1.75;;;26.30;98871.11;;;;117055;1193;25634;-54
2022/05/19 06:33:58;;;;;;;;;1.50;1.50;;;26.19;98869.27;;;;117469;1192;25376;-54
2022/05/19 06:36:29;;;;;;;;;4.67;3.00;;;26.32;98867.29;;;;117077;1194;24991;-53
2022/05/19 06:38:59;;;;;;;;;3.00;3.00;;;26.35;98866.20;;;;117221;1193;24886;-55
2022/05/19 06:44:17;;;;;;;;;7.67;4.00;;;26.39;98863.25;;;;117036;1192;25871;-52
2022/05/19 06:46:48;;;;;;;;;6.00;5.00;;;26.36;98861.79;;;;117042;1192;24887;-54
2022/05/19 06:49:18;;;;;;;;;8.33;6.00;;;26.38;98861.21;;;;117281;1192;25736;-53
2022/05/19 06:51:51;;;;;;;;;10.00;8.00;;;26.50;98859.75;;;;117053;1191;24789;-56
2022/05/19 06:54:20;;;;;;;;;10.00;7.00;;;26.52;98862.08;;;;117372;1193;25807;-54
2022/05/19 06:56:49;;;;;;;;;24.00;13.00;;;26.63;98863.65;;;;117484;1193;25511;-55
2022/05/19 06:59:25;;;;;;;;;18.67;8.00;;;26.76;98864.37;;;;117601;1192;24804;-55
2022/05/19 07:01:55;;;;;;;;;18.75;11.25;;;26.91;98865.45;;;;117589;1193;25113;-55
2022/05/19 07:04:27;;;;;;;;;19.75;12.75;;;27.00;98866.77;;;;117663;1191;25817;-55
2022/05/19 07:06:55;;;;;;;;;15.75;11.25;;;27.09;98870.63;;;;117390;1193;26313;-54
2022/05/19 07:09:30;;;;;;;;;14.75;10.25;;;27.10;98871.84;;;;117507;1193;26343;-54
2022/05/19 07:12:03;;;;;;;;;21.50;10.50;;;27.15;98875.13;;;;117497;1193;25233;-54
2022/05/19 07:14:32;;;;;;;;;18.00;13.75;;;27.21;98876.09;;;;117441;1191;25011;-54
2022/05/19 07:17:01;;;;;;;;;20.33;12.33;;;27.21;98874.77;;;;117465;1193;24751;-56
2022/05/19 07:22:29;;;;;;;;;23.50;11.75;;;27.28;98877.09;;;;117857;1192;25509;-56
2022/05/19 07:25:00;;;;;;;;;17.67;14.00;;;27.39;98879.61;;;;117767;1193;25088;-55
2022/05/19 07:27:28;;;;;;;;;31.25;23.25;;;27.49;98872.08;;;;117682;1193;25471;-55
2022/05/19 07:30:01;;;;;;;;;22.75;14.50;;;27.54;98871.90;;;;117551;1193;24872;-55
2022/05/19 07:32:28;;;;;;;;;29.75;20.25;;;27.51;98867.92;;;;117616;1192;24922;-55
2022/05/19 07:34:59;;;;;;;;;33.67;19.67;;;27.58;98867.20;;;;117545;1193;26018;-56
2022/05/19 07:37:33;;;;;;;;;37.25;21.50;;;27.58;98863.18;;;;117583;1193;25566;-56
2022/05/19 07:40:11;;;;;;;;;23.75;13.00;;;27.63;98864.49;;;;117631;1192;25282;-56
2022/05/19 07:42:43;;;;;;;;;27.00;16.25;;;27.69;98863.44;;;;117359;1193;24897;-55
2022/05/19 07:45:11;;;;;;;;;26.50;18.50;;;27.67;98863.05;;;;117399;1193;25435;-57
2022/05/19 07:47:40;;;;;;;;;28.00;18.50;;;27.63;98864.25;;;;117456;1193;25651;-55
2022/05/19 07:50:10;;;;;;;;;36.75;24.00;;;27.64;98866.14;;;;117645;1193;25173;-57
2022/05/19 07:52:40;;;;;;;;;36.33;21.00;;;27.72;98869.09;;;;117763;1193;25803;-54
2022/05/19 07:55:09;;;;;;;;;33.25;23.25;;;27.83;98869.10;;;;117638;1193;25017;-56
2022/05/19 07:57:41;;;;;;;;;21.00;18.75;;;27.85;98869.43;;;;117608;1193;25489;-55
2022/05/19 08:00:12;;;;;;;;;31.75;26.75;;;27.89;98868.96;;;;117455;1193;24890;-53
2022/05/19 08:02:41;;;;;;;;;26.00;20.00;;;27.86;98875.18;;;;117387;1192;25522;-54
2022/05/19 08:05:11;;;;;;;;;33.33;24.00;;;27.83;98872.67;;;;117476;1192;25000;-54
2022/05/19 08:07:39;;;;;;;;;36.00;21.67;;;27.77;98864.73;;;;117574;1193;25314;-52
2022/05/19 08:10:24;;;;;;;;;34.50;25.50;;;27.83;98861.27;;;;117513;1192;26324;-55
2022/05/19 08:15:48;;;;;;;;;42.00;25.00;;;28.03;98858.41;;;;117536;1193;25119;-57
2022/05/19 08:18:20;;;;;;;;;65.67;42.00;;;28.03;98858.42;;;;117687;1192;26270;-57
2022/05/19 08:20:57;;;;;;;;;78.50;53.00;;;28.09;98857.45;;;;117555;1193;25289;-56
2022/05/19 08:23:33;;;;;;;;;89.67;61.33;;;28.10;98861.85;;;;117625;1191;24966;-54
2022/05/19 08:26:04;;;;;;;;;104.25;71.75;;;28.14;98862.40;;;;117549;1193;25514;-56
2022/05/19 08:28:39;;;;;;;;;121.00;93.00;;;28.13;98859.46;;;;117460;1193;25322;-58
2022/05/19 08:31:13;;;;;;;;;177.50;113.75;;;28.11;98857.70;;;;117642;1193;25302;-56
2022/05/19 08:33:46;;;;;;;;;172.25;123.25;;;28.19;98853.92;;;;117528;1193;24853;-54
2022/05/19 08:36:24;;;;;;;;;166.75;115.50;;;28.19;98850.17;;;;117645;1192;25112;-55
2022/05/19 08:38:52;;;;;;;;;125.25;91.25;;;28.24;98846.17;;;;117886;1192;25011;-55
2022/05/19 08:41:35;;;;;;;;;131.00;95.50;;;28.35;98850.16;;;;118012;1192;24979;-55
2022/05/19 08:44:08;;;;;;;;;111.25;78.50;;;28.49;98853.60;;;;117852;1193;25225;-55
2022/05/19 08:46:46;;;;;;;;;117.50;82.50;;;28.53;98852.14;;;;117865;1192;25745;-54
2022/05/19 08:50:01;;;;;;;;;114.50;80.75;;;28.57;98852.81;;;;117665;1193;25509;-55
2022/05/19 08:52:40;;;;;;;;;120.67;82.33;;;28.63;98851.41;;;;117694;1194;25707;-55
2022/05/19 08:55:15;;;;;;;;;61.00;45.00;;;28.64;98850.36;;;;117641;1193;25453;-53
2022/05/19 08:58:10;;;;;;;;;66.50;44.50;;;28.55;98850.63;;;;117192;1193;25617;-55
2022/05/19 09:00:52;;;;;;;;;62.67;42.33;;;28.43;98849.14;;;;117691;1193;25481;-55
2022/05/19 09:03:46;;;;;;;;;60.00;45.00;;;28.50;98853.02;;;;117686;1192;25713;-57
2022/05/19 09:06:35;;;;;;;;;70.33;48.33;;;28.53;98851.56;;;;117702;1193;24840;-56
2022/05/19 09:09:25;;;;;;;;;74.50;48.00;;;28.51;98846.36;;;;117295;1193;25280;-57
2022/05/19 09:12:08;;;;;;;;;63.50;46.50;;;28.42;98835.08;;;;117425;1193;25168;-56
2022/05/19 09:14:39;;;;;;;;;58.00;41.00;;;28.32;98832.00;;;;117527;1193;24808;-56
2022/05/19 09:17:10;;;;;;;;;57.67;40.33;;;28.31;98831.14;;;;117559;1192;25489;-56
2022/05/19 09:19:52;;;;;;;;;54.00;42.50;;;28.28;98829.64;;;;117685;1193;25438;-56
2022/05/19 09:22:23;;;;;;;;;59.67;41.33;;;28.34;98829.67;;;;117590;1193;25664;-56
2022/05/19 09:24:54;;;;;;;;;62.00;43.67;;;28.31;98825.30;;;;117619;1193;24754;-56
2022/05/19 09:27:22;;;;;;;;;58.33;39.67;;;28.27;98821.32;;;;117613;1193;25638;-56
2022/05/19 09:29:57;;;;;;;;;56.33;40.33;;;28.27;98824.48;;;;117509;1193;25093;-55
2022/05/19 09:32:45;;;;;;;;;61.00;41.33;;;28.26;98825.83;;;;117604;1193;24886;-57
2022/05/19 09:35:20;;;;;;;;;52.67;36.67;;;28.27;98830.36;;;;117378;1193;25325;-57
2022/05/19 09:38:17;;;;;;;;;56.00;40.33;;;28.20;98820.91;;;;117688;1192;24794;-57
2022/05/19 09:40:48;;;;;;;;;50.00;34.00;;;28.35;98820.23;;;;117410;1193;25361;-56
2022/05/19 09:43:27;;;;;;;;;41.67;30.67;;;28.29;98818.96;;;;117709;1193;25644;-57
2022/05/19 09:46:17;;;;;;;;;44.67;31.33;;;28.30;98814.70;;;;117563;1193;25754;-59
2022/05/19 09:48:51;;;;;;;;;47.00;30.00;;;28.30;98808.52;;;;117593;1193;25346;-57
2022/05/19 09:51:21;;;;;;;;;49.75;34.50;;;28.31;98811.25;;;;117671;1192;25380;-60
2022/05/19 09:53:55;;;;;;;;;43.50;33.00;;;28.38;98809.19;;;;117650;1191;25206;-58
2022/05/19 09:56:40;;;;;;;;;41.00;32.00;;;28.38;98798.23;;;;117640;1193;25580;-56
2022/05/19 09:59:16;;;;;;;;;36.50;27.75;;;28.40;98795.11;;;;117571;1193;25601;-58
2022/05/19 10:01:46;;;;;;;;;32.25;26.50;;;28.43;98800.25;;;;117465;1192;25596;-58
2022/05/19 10:04:25;;;;;;;;;30.50;23.25;;;28.37;98796.55;;;;117539;1192;25439;-57
2022/05/19 10:06:56;;;;;;;;;23.00;20.67;;;28.36;98795.50;;;;117439;1194;25619;-57
2022/05/19 10:09:32;;;;;;;;;26.50;18.00;;;28.35;98798.05;;;;117741;1192;25023;-58
2022/05/19 10:12:12;;;;;;;;;34.00;22.00;;;28.38;98803.45;;;;117322;1193;25116;-58
2022/05/19 10:14:41;;;;;;;;;36.00;26.00;;;28.31;98804.52;;;;117648;1193;25661;-57
2022/05/19 10:17:23;;;;;;;;;36.75;25.50;;;28.34;98798.91;;;;117457;1193;24910;-62
2022/05/19 10:19:58;;;;;;;;;27.75;23.25;;;28.39;98790.62;;;;117563;1193;24762;-56
2022/05/19 10:22:35;;;;;;;;;37.00;22.25;;;28.40;98793.17;;;;117613;1193;25112;-57
2022/05/19 10:25:25;;;;;;;;;24.00;21.00;;;28.43;98790.86;;;;117220;1193;25780;-57
2022/05/19 10:31:20;;;;;;;;;35.00;22.00;;;28.38;98795.52;;;;117417;1191;25655;-57
2022/05/19 10:34:10;;;;;;;;;33.00;24.00;;;28.33;98799.65;;;;117790;1193;25661;-57
2022/05/19 10:36:42;;;;;;;;;29.25;22.50;;;28.53;98792.77;;;;117748;1192;25477;-56
2022/05/19 10:39:43;;;;;;;;;34.00;23.00;;;28.59;98794.77;;;;117655;1193;26239;-57
2022/05/19 10:42:48;;;;;;;;;25.00;17.75;;;28.62;98796.40;;;;117814;1194;25556;-56
2022/05/19 10:45:27;;;;;;;;;26.75;23.25;;;28.70;98797.70;;;;117604;1191;24979;-56
2022/05/19 10:48:24;;;;;;;;;18.25;12.75;;;28.66;98796.69;;;;117748;1193;24975;-56
2022/05/19 10:51:03;;;;;;;;;15.00;10.00;;;28.70;98796.10;;;;117470;1193;25394;-56
2022/05/19 10:54:07;;;;;;;;;15.00;10.50;;;28.62;98791.37;;;;117483;1193;26166;-56
2022/05/19 10:56:58;;;;;;;;;8.50;6.00;;;28.60;98795.70;;;;117610;1193;24758;-56
2022/05/19 11:00:05;;;;;;;;;9.75;6.00;;;28.61;98795.91;;;;117501;1193;25503;-55
2022/05/19 11:03:01;;;;;;;;;7.00;7.00;;;28.69;98796.39;;;;117391;1193;25589;-55
2022/05/19 11:05:48;;;;;;;;;12.00;7.50;;;28.64;98793.02;;;;117643;1193;25201;-55
2022/05/19 11:08:21;;;;;;;;;6.67;5.33;;;28.64;98788.86;;;;117630;1193;25559;-54
2022/05/19 11:11:01;;;;;;;;;4.00;4.00;;;28.59;98782.92;;;;117464;1193;25016;-58
2022/05/19 11:13:48;;;;;;;;;11.50;5.75;;;28.48;98785.38;;;;117654;1193;25621;-56
2022/05/19 11:16:21;;;;;;;;;10.00;5.00;;;28.47;98780.60;;;;117422;1192;25454;-56
2022/05/19 11:18:58;;;;;;;;;9.00;7.00;;;28.40;98771.02;;;;117495;1192;25595;-57
2022/05/19 11:21:36;;;;;;;;;9.25;7.00;;;28.40;98769.06;;;;117552;1194;25064;-58
2022/05/19 11:24:13;;;;;;;;;11.33;6.00;;;28.44;98758.65;;;;117697;1192;24802;-57
2022/05/19 11:26:46;;;;;;;;;6.33;4.67;;;28.51;98756.11;;;;117626;1193;25924;-56
2022/05/19 11:29:31;;;;;;;;;6.75;5.75;;;28.51;98756.52;;;;117562;1193;25447;-56
2022/05/19 11:32:12;;;;;;;;;11.00;5.75;;;28.52;98756.30;;;;117584;1193;25083;-57
2022/05/19 11:35:12;;;;;;;;;5.00;5.00;;;28.56;98756.64;;;;117906;1193;25232;-57
2022/05/19 11:37:48;;;;;;;;;6.00;6.00;;;28.68;98757.67;;;;117732;1193;25590;-56
2022/05/19 11:40:21;;;;;;;;;11.00;6.33;;;28.67;98752.68;;;;117802;1193;24834;-57
2022/05/19 11:43:34;;;;;;;;;9.25;6.75;;;28.70;98758.52;;;;117619;1193;25466;-58
2022/05/19 11:46:19;;;;;;;;;10.50;7.00;;;28.73;98754.90;;;;117497;1193;25195;-58
2022/05/19 11:55:15;;;;;;;;;8.00;6.25;;;28.67;98741.10;;;;117655;1191;24748;-56
2022/05/19 11:57:56;;;;;;;;;9.25;7.00;;;28.67;98738.06;;;;117537;1192;25488;-56
2022/05/19 12:00:36;;;;;;;;;7.25;4.50;;;28.66;98732.23;;;;117615;1193;25371;-56
2022/05/19 12:03:10;;;;;;;;;7.50;6.75;;;28.68;98732.83;;;;117571;1192;25490;-57
2022/05/19 12:05:58;;;;;;;;;6.75;5.50;;;28.69;98723.37;;;;117485;1192;25513;-57
2022/05/19 12:08:55;;;;;;;;;7.50;5.50;;;28.67;98721.77;;;;117170;1193;25464;-57
2022/05/19 12:11:28;;;;;;;;;8.00;5.50;;;28.63;98729.93;;;;117522;1193;25769;-57
2022/05/19 12:14:12;;;;;;;;;6.00;5.00;;;28.62;98728.87;;;;117745;1193;25328;-55
2022/05/19 12:17:11;;;;;;;;;4.67;4.00;;;28.69;98729.74;;;;117779;1192;25502;-55
2022/05/19 12:19:51;;;;;;;;;7.00;4.67;;;28.75;98722.72;;;;117910;1193;25098;-58
2022/05/19 12:22:30;;;;;;;;;13.75;9.75;;;28.83;98718.21;;;;118029;1192;25341;-54
2022/05/19 12:25:10;;;;;;;;;4.25;4.25;;;28.95;98716.14;;;;118090;1193;25269;-54
2022/05/19 12:27:54;;;;;;;;;12.75;9.75;;;29.04;98721.51;;;;117755;1191;25219;-55
2022/05/19 12:33:40;;;;;;;;;22.75;11.25;;;29.05;98721.22;;;;117911;1192;25311;-55
2022/05/19 12:36:47;;;;;;;;;18.75;13.25;;;29.03;98718.27;;;;117832;1193;25326;-57
2022/05/19 12:39:20;;;;;;;;;14.50;10.00;;;29.12;98718.45;;;;117898;1192;24976;-56
2022/05/19 12:41:49;;;;;;;;;22.50;13.50;;;29.14;98718.81;;;;117903;1193;24748;-56
2022/05/19 12:44:56;;;;;;;;;17.25;10.50;;;29.15;98714.03;;;;118394;1193;24871;-56
2022/05/19 12:47:34;;;;;;;;;15.50;11.25;;;29.35;98714.55;;;;118099;1193;25434;-56
2022/05/19 12:50:06;;;;;;;;;17.25;11.50;;;29.35;98714.25;;;;118284;1193;24996;-56
2022/05/19 12:52:59;;;;;;;;;13.75;11.25;;;29.41;98717.69;;;;118013;1191;25735;-56
2022/05/19 12:55:36;;;;;;;;;13.50;10.25;;;29.40;98714.69;;;;117892;1193;25455;-58
2022/05/19 12:58:46;;;;;;;;;16.67;10.00;;;29.35;98712.33;;;;117631;1193;24906;-58
2022/05/19 13:01:16;;;;;;;;;14.00;10.50;;;29.33;98716.77;;;;117747;1192;25496;-58